DLH04T EDDF-LEAS
Flight info
| Callsign | DLH04T |
|---|---|
| Flight time | 2h 2m |
| Altitude | 35000 |
| Route | SOBRA8E SOBRA Y180 DIK UN857 TOLVU DCT RAPOR DCT GIMER DCT ESTOC UT300 PON UN872 GODIX/N0435F310 UN872 ERIGA DCT FUJTI DCT ATLEN/N0382F230 N872 DEVAR |
| Aircraft | A321/M-SDE2E3FGIJ1LORWXYZ/HB1 |
Departure
| Time | 2026-04-17 07:41 |
|---|---|
| Airport | Frankfurt Main Airport (EDDF) |
Arrival
| Time | 2026-04-17 09:44 |
|---|---|
| Airport | Asturias Airport (LEAS) |
| Time | Latitude | Longitude | Altitude | Speed | Heading |
|---|---|---|---|---|---|
| 2026-04-17 07:16 | 50.04650 | 8.56025 | 356 ft | 0 kts | 340° |
| 2026-04-17 07:32 | 50.04649 | 8.56028 | 356 ft | 4 kts | 295° |
| 2026-04-17 07:32 | 50.04646 | 8.56045 | 364 ft | 4 kts | 295° |
| 2026-04-17 07:33 | 50.04630 | 8.56071 | 365 ft | 4 kts | 341° |
| 2026-04-17 07:33 | 50.04606 | 8.56084 | 358 ft | 4 kts | 328° |
| 2026-04-17 07:33 | 50.04592 | 8.56110 | 363 ft | 4 kts | 266° |
| 2026-04-17 07:33 | 50.04597 | 8.56143 | 360 ft | 1 kts | 249° |
| 2026-04-17 07:34 | 50.04599 | 8.56150 | 360 ft | 0 kts | 249° |
| 2026-04-17 07:35 | 50.04598 | 8.56146 | 360 ft | 2 kts | 249° |
| 2026-04-17 07:35 | 50.04580 | 8.56074 | 356 ft | 12 kts | 249° |
| 2026-04-17 07:36 | 50.04535 | 8.55962 | 361 ft | 13 kts | 210° |
| 2026-04-17 07:36 | 50.04448 | 8.55917 | 360 ft | 13 kts | 195° |
| 2026-04-17 07:36 | 50.04352 | 8.55924 | 359 ft | 15 kts | 162° |
| 2026-04-17 07:36 | 50.04248 | 8.55938 | 357 ft | 16 kts | 221° |
| 2026-04-17 07:37 | 50.04199 | 8.55770 | 353 ft | 18 kts | 249° |
| 2026-04-17 07:37 | 50.04154 | 8.55580 | 360 ft | 20 kts | 250° |
| 2026-04-17 07:37 | 50.04106 | 8.55377 | 358 ft | 20 kts | 250° |
| 2026-04-17 07:37 | 50.04057 | 8.55174 | 356 ft | 20 kts | 250° |
| 2026-04-17 07:38 | 50.04008 | 8.54964 | 360 ft | 22 kts | 250° |
| 2026-04-17 07:38 | 50.03944 | 8.54703 | 353 ft | 28 kts | 249° |
| 2026-04-17 07:38 | 50.03876 | 8.54422 | 354 ft | 28 kts | 249° |
| 2026-04-17 07:38 | 50.03784 | 8.54156 | 350 ft | 28 kts | 249° |
| 2026-04-17 07:39 | 50.03715 | 8.53871 | 352 ft | 28 kts | 249° |
| 2026-04-17 07:39 | 50.03646 | 8.53581 | 348 ft | 29 kts | 249° |
| 2026-04-17 07:39 | 50.03572 | 8.53284 | 335 ft | 30 kts | 249° |
| 2026-04-17 07:39 | 50.03501 | 8.52988 | 334 ft | 29 kts | 250° |
| 2026-04-17 07:40 | 50.03431 | 8.52711 | 331 ft | 27 kts | 248° |
| 2026-04-17 07:40 | 50.03296 | 8.52594 | 332 ft | 30 kts | 180° |
| 2026-04-17 07:40 | 50.02828 | 8.52600 | 336 ft | 103 kts | 180° |
| 2026-04-17 07:40 | 50.02259 | 8.52605 | 334 ft | 143 kts | 179° |
| 2026-04-17 07:41 | 50.01122 | 8.52617 | 580 ft | 171 kts | 178° |
| 2026-04-17 07:41 | 49.99942 | 8.52679 | 1330 ft | 170 kts | 177° |
| 2026-04-17 07:41 | 49.98700 | 8.52768 | 1753 ft | 189 kts | 177° |
| 2026-04-17 07:41 | 49.97306 | 8.52868 | 2012 ft | 212 kts | 177° |
| 2026-04-17 07:42 | 49.95783 | 8.52970 | 2547 ft | 222 kts | 177° |
| 2026-04-17 07:42 | 49.94227 | 8.53068 | 3314 ft | 225 kts | 178° |
| 2026-04-17 07:42 | 49.92658 | 8.53165 | 4071 ft | 227 kts | 178° |
| 2026-04-17 07:42 | 49.91070 | 8.53260 | 4836 ft | 230 kts | 178° |
| 2026-04-17 07:43 | 49.89459 | 8.53354 | 5592 ft | 233 kts | 178° |
| 2026-04-17 07:43 | 49.87829 | 8.53364 | 6354 ft | 235 kts | 185° |
| 2026-04-17 07:43 | 49.86222 | 8.52850 | 7061 ft | 238 kts | 199° |
| 2026-04-17 07:43 | 49.84693 | 8.51978 | 7849 ft | 238 kts | 200° |
| 2026-04-17 07:44 | 49.83064 | 8.51056 | 8128 ft | 261 kts | 200° |
| 2026-04-17 07:44 | 49.81294 | 8.50064 | 8529 ft | 277 kts | 200° |
| 2026-04-17 07:44 | 49.79461 | 8.49039 | 9184 ft | 283 kts | 200° |
| 2026-04-17 07:44 | 49.77703 | 8.47669 | 9876 ft | 286 kts | 220° |
| 2026-04-17 07:45 | 49.76443 | 8.45306 | 10512 ft | 288 kts | 245° |
| 2026-04-17 07:45 | 49.75933 | 8.42312 | 10981 ft | 297 kts | 270° |
| 2026-04-17 07:45 | 49.76262 | 8.39069 | 11128 ft | 317 kts | 285° |
| 2026-04-17 07:45 | 49.76836 | 8.35677 | 11396 ft | 332 kts | 285° |
| 2026-04-17 07:46 | 49.77422 | 8.32185 | 11961 ft | 338 kts | 285° |
| 2026-04-17 07:46 | 49.78002 | 8.28647 | 12603 ft | 341 kts | 284° |
| 2026-04-17 07:46 | 49.78578 | 8.25080 | 13250 ft | 343 kts | 285° |
| 2026-04-17 07:46 | 49.79157 | 8.21483 | 13888 ft | 346 kts | 285° |
| 2026-04-17 07:47 | 49.79738 | 8.17862 | 14475 ft | 348 kts | 284° |
| 2026-04-17 07:47 | 49.80322 | 8.14207 | 15048 ft | 351 kts | 284° |
| 2026-04-17 07:47 | 49.80907 | 8.10525 | 15619 ft | 353 kts | 284° |
| 2026-04-17 07:47 | 49.81486 | 8.06868 | 16194 ft | 356 kts | 284° |
| 2026-04-17 07:48 | 49.82083 | 8.03085 | 16778 ft | 358 kts | 284° |
| 2026-04-17 07:48 | 49.82677 | 7.99323 | 17344 ft | 361 kts | 284° |
| 2026-04-17 07:48 | 49.83265 | 7.95586 | 17900 ft | 363 kts | 284° |
| 2026-04-17 07:48 | 49.83866 | 7.91770 | 18457 ft | 366 kts | 284° |
| 2026-04-17 07:49 | 49.84470 | 7.87922 | 18958 ft | 369 kts | 284° |
| 2026-04-17 07:49 | 49.85077 | 7.84053 | 19444 ft | 371 kts | 284° |
| 2026-04-17 07:49 | 49.85686 | 7.80161 | 19930 ft | 373 kts | 284° |
| 2026-04-17 07:49 | 49.86298 | 7.76246 | 20416 ft | 375 kts | 284° |
| 2026-04-17 07:50 | 49.86919 | 7.72309 | 20880 ft | 377 kts | 284° |
| 2026-04-17 07:50 | 49.87540 | 7.68348 | 21319 ft | 380 kts | 284° |
| 2026-04-17 07:50 | 49.88160 | 7.64353 | 21784 ft | 382 kts | 284° |
| 2026-04-17 07:50 | 49.88779 | 7.60339 | 22238 ft | 384 kts | 284° |
| 2026-04-17 07:51 | 49.89399 | 7.56301 | 22701 ft | 386 kts | 283° |
| 2026-04-17 07:51 | 49.90020 | 7.52243 | 23163 ft | 388 kts | 283° |
| 2026-04-17 07:51 | 49.90646 | 7.48160 | 23620 ft | 390 kts | 283° |
| 2026-04-17 07:51 | 49.91275 | 7.44054 | 24019 ft | 392 kts | 283° |
| 2026-04-17 07:52 | 49.91905 | 7.39922 | 24397 ft | 394 kts | 283° |
| 2026-04-17 07:52 | 49.92536 | 7.35774 | 24790 ft | 396 kts | 283° |
| 2026-04-17 07:52 | 49.93167 | 7.31607 | 25161 ft | 398 kts | 283° |
| 2026-04-17 07:52 | 49.93802 | 7.27412 | 25537 ft | 400 kts | 283° |
| 2026-04-17 07:53 | 49.94440 | 7.23204 | 25900 ft | 402 kts | 283° |
| 2026-04-17 07:53 | 49.95079 | 7.18971 | 26270 ft | 404 kts | 283° |
| 2026-04-17 07:53 | 49.95719 | 7.14717 | 26634 ft | 406 kts | 283° |
| 2026-04-17 07:53 | 49.96360 | 7.10440 | 26990 ft | 408 kts | 283° |
| 2026-04-17 07:54 | 49.97001 | 7.06141 | 27348 ft | 409 kts | 283° |
| 2026-04-17 07:54 | 49.97643 | 7.01823 | 27703 ft | 411 kts | 283° |
| 2026-04-17 07:54 | 49.98285 | 6.97485 | 28044 ft | 413 kts | 283° |
| 2026-04-17 07:54 | 49.98918 | 6.93120 | 28397 ft | 415 kts | 281° |
| 2026-04-17 07:55 | 49.99238 | 6.88653 | 28745 ft | 418 kts | 272° |
| 2026-04-17 07:55 | 49.99154 | 6.84118 | 29057 ft | 421 kts | 269° |
| 2026-04-17 07:55 | 49.99016 | 6.79568 | 29378 ft | 423 kts | 268° |
| 2026-04-17 07:55 | 49.98876 | 6.74992 | 29698 ft | 425 kts | 269° |
| 2026-04-17 07:56 | 49.98735 | 6.70393 | 30020 ft | 427 kts | 268° |
| 2026-04-17 07:56 | 49.98591 | 6.65773 | 30319 ft | 429 kts | 269° |
| 2026-04-17 07:56 | 49.98445 | 6.61141 | 30574 ft | 431 kts | 268° |
| 2026-04-17 07:56 | 49.98034 | 6.56517 | 30823 ft | 434 kts | 259° |
| 2026-04-17 07:57 | 49.97143 | 6.52024 | 31050 ft | 437 kts | 250° |
| 2026-04-17 07:57 | 49.95932 | 6.47687 | 31325 ft | 438 kts | 249° |
| 2026-04-17 07:57 | 49.94714 | 6.43363 | 31673 ft | 436 kts | 249° |
| 2026-04-17 07:57 | 49.93500 | 6.39053 | 32024 ft | 435 kts | 249° |
| 2026-04-17 07:58 | 49.92291 | 6.34758 | 32375 ft | 434 kts | 249° |
| 2026-04-17 07:58 | 49.91085 | 6.30472 | 32673 ft | 434 kts | 249° |
| 2026-04-17 07:58 | 49.89875 | 6.26187 | 32994 ft | 433 kts | 249° |
| 2026-04-17 07:58 | 49.88641 | 6.21937 | 33322 ft | 432 kts | 248° |
| 2026-04-17 07:59 | 49.87422 | 6.17693 | 33659 ft | 430 kts | 249° |
| 2026-04-17 07:59 | 49.86161 | 6.13490 | 33974 ft | 431 kts | 244° |
| 2026-04-17 07:59 | 49.84558 | 6.09564 | 34282 ft | 432 kts | 238° |
| 2026-04-17 07:59 | 49.82829 | 6.05764 | 34537 ft | 431 kts | 238° |
| 2026-04-17 08:00 | 49.81096 | 6.01982 | 34791 ft | 430 kts | 238° |
| 2026-04-17 08:00 | 49.79362 | 5.98220 | 35083 ft | 429 kts | 238° |
| 2026-04-17 08:00 | 49.77626 | 5.94466 | 35206 ft | 428 kts | 237° |
| 2026-04-17 08:00 | 49.75900 | 5.90742 | 35241 ft | 424 kts | 237° |
| 2026-04-17 08:01 | 49.73181 | 5.82794 | 35241 ft | 416 kts | 253° |
| 2026-04-17 08:01 | 49.71255 | 5.74355 | 35237 ft | 417 kts | 252° |
| 2026-04-17 08:02 | 49.69294 | 5.65932 | 35236 ft | 417 kts | 252° |
| 2026-04-17 08:02 | 49.67331 | 5.57568 | 35237 ft | 417 kts | 252° |
| 2026-04-17 08:03 | 49.65356 | 5.49156 | 35238 ft | 417 kts | 252° |
| 2026-04-17 08:03 | 49.63373 | 5.40750 | 35243 ft | 417 kts | 252° |
| 2026-04-17 08:04 | 49.61423 | 5.32325 | 35241 ft | 417 kts | 253° |
| 2026-04-17 08:04 | 49.59617 | 5.23837 | 35244 ft | 417 kts | 254° |
| 2026-04-17 08:05 | 49.57943 | 5.15288 | 35245 ft | 416 kts | 257° |
| 2026-04-17 08:05 | 49.56485 | 5.06665 | 35248 ft | 416 kts | 257° |
| 2026-04-17 08:06 | 49.55029 | 4.98040 | 35251 ft | 416 kts | 257° |
| 2026-04-17 08:06 | 49.53500 | 4.89436 | 35253 ft | 417 kts | 256° |
| 2026-04-17 08:07 | 49.51937 | 4.80838 | 35253 ft | 417 kts | 256° |
| 2026-04-17 08:07 | 49.50373 | 4.72236 | 35255 ft | 418 kts | 256° |
| 2026-04-17 08:08 | 49.48812 | 4.63631 | 35256 ft | 418 kts | 256° |
| 2026-04-17 08:08 | 49.47244 | 4.55025 | 35257 ft | 418 kts | 256° |
| 2026-04-17 08:09 | 49.45672 | 4.46432 | 35255 ft | 418 kts | 256° |
| 2026-04-17 08:09 | 49.44097 | 4.37844 | 35243 ft | 417 kts | 256° |
| 2026-04-17 08:10 | 49.42516 | 4.29266 | 35243 ft | 417 kts | 256° |
| 2026-04-17 08:10 | 49.40921 | 4.20698 | 35252 ft | 417 kts | 256° |
| 2026-04-17 08:11 | 49.39322 | 4.12128 | 35260 ft | 418 kts | 256° |
| 2026-04-17 08:11 | 49.37707 | 4.03558 | 35256 ft | 418 kts | 256° |
| 2026-04-17 08:12 | 49.36121 | 3.94991 | 35255 ft | 417 kts | 258° |
| 2026-04-17 08:12 | 49.34838 | 3.86329 | 35262 ft | 416 kts | 260° |
| 2026-04-17 08:13 | 49.33697 | 3.77624 | 35261 ft | 416 kts | 260° |
| 2026-04-17 08:14 | 49.31880 | 3.64602 | 35261 ft | 417 kts | 259° |
| 2026-04-17 08:14 | 49.30602 | 3.55938 | 35268 ft | 417 kts | 259° |
| 2026-04-17 08:15 | 49.29327 | 3.47290 | 35258 ft | 416 kts | 259° |
| 2026-04-17 08:15 | 49.28060 | 3.38640 | 35263 ft | 416 kts | 259° |
| 2026-04-17 08:16 | 49.26784 | 3.30006 | 35262 ft | 416 kts | 259° |
| 2026-04-17 08:16 | 49.25500 | 3.21385 | 35247 ft | 415 kts | 259° |
| 2026-04-17 08:17 | 49.24204 | 3.12767 | 35245 ft | 416 kts | 259° |
| 2026-04-17 08:17 | 49.22912 | 3.04143 | 35260 ft | 416 kts | 259° |
| 2026-04-17 08:18 | 49.21618 | 2.95527 | 35264 ft | 416 kts | 258° |
| 2026-04-17 08:18 | 49.20308 | 2.86921 | 35266 ft | 416 kts | 258° |
| 2026-04-17 08:19 | 49.18988 | 2.78316 | 35256 ft | 416 kts | 258° |
| 2026-04-17 08:19 | 49.17664 | 2.69706 | 35259 ft | 416 kts | 258° |
| 2026-04-17 08:20 | 49.16328 | 2.61106 | 35257 ft | 416 kts | 258° |
| 2026-04-17 08:20 | 49.15011 | 2.52570 | 35270 ft | 416 kts | 258° |
| 2026-04-17 08:21 | 49.13670 | 2.43927 | 35273 ft | 415 kts | 258° |
| 2026-04-17 08:21 | 49.12581 | 2.35346 | 35266 ft | 414 kts | 263° |
| 2026-04-17 08:22 | 49.11776 | 2.26642 | 35265 ft | 414 kts | 263° |
| 2026-04-17 08:22 | 49.10961 | 2.17938 | 35262 ft | 414 kts | 263° |
| 2026-04-17 08:23 | 49.10141 | 2.09231 | 35257 ft | 414 kts | 263° |
| 2026-04-17 08:23 | 49.08747 | 2.00721 | 35261 ft | 417 kts | 248° |
| 2026-04-17 08:24 | 49.06322 | 1.92685 | 35247 ft | 417 kts | 247° |
| 2026-04-17 08:24 | 49.03899 | 1.84640 | 35243 ft | 418 kts | 247° |
| 2026-04-17 08:25 | 49.01475 | 1.76591 | 35257 ft | 418 kts | 247° |
| 2026-04-17 08:25 | 48.99045 | 1.68551 | 35267 ft | 418 kts | 247° |
| 2026-04-17 08:26 | 48.96614 | 1.60531 | 35250 ft | 417 kts | 247° |
| 2026-04-17 08:26 | 48.94165 | 1.52530 | 35253 ft | 417 kts | 247° |
| 2026-04-17 08:27 | 48.92127 | 1.45890 | 35263 ft | 417 kts | 247° |
| 2026-04-17 08:27 | 48.89680 | 1.37909 | 35253 ft | 417 kts | 247° |
| 2026-04-17 08:28 | 48.87227 | 1.29924 | 35269 ft | 417 kts | 246° |
| 2026-04-17 08:28 | 48.84759 | 1.21964 | 35268 ft | 416 kts | 246° |
| 2026-04-17 08:29 | 48.82296 | 1.14013 | 35273 ft | 416 kts | 246° |
| 2026-04-17 08:29 | 48.79830 | 1.06073 | 35272 ft | 416 kts | 246° |
| 2026-04-17 08:30 | 48.77362 | 0.98138 | 35259 ft | 416 kts | 246° |
| 2026-04-17 08:30 | 48.74880 | 0.90223 | 35267 ft | 416 kts | 246° |
| 2026-04-17 08:31 | 48.71943 | 0.82655 | 35254 ft | 417 kts | 240° |
| 2026-04-17 08:31 | 48.68909 | 0.75175 | 35271 ft | 417 kts | 240° |
| 2026-04-17 08:32 | 48.65878 | 0.67695 | 35255 ft | 417 kts | 240° |
| 2026-04-17 08:32 | 48.62842 | 0.60225 | 35251 ft | 417 kts | 240° |
| 2026-04-17 08:33 | 48.59793 | 0.52753 | 35253 ft | 418 kts | 240° |
| 2026-04-17 08:33 | 48.56737 | 0.45285 | 35255 ft | 418 kts | 240° |
| 2026-04-17 08:34 | 48.53670 | 0.37819 | 35263 ft | 418 kts | 240° |
| 2026-04-17 08:34 | 48.50605 | 0.30367 | 35257 ft | 418 kts | 240° |
| 2026-04-17 08:35 | 48.47535 | 0.22928 | 35262 ft | 418 kts | 239° |
| 2026-04-17 08:35 | 48.44459 | 0.15498 | 35261 ft | 418 kts | 239° |
| 2026-04-17 08:36 | 48.41383 | 0.08086 | 35246 ft | 418 kts | 239° |
| 2026-04-17 08:36 | 48.38296 | 0.00669 | 35249 ft | 418 kts | 239° |
| 2026-04-17 08:37 | 48.35158 | -0.06698 | 35262 ft | 419 kts | 237° |
| 2026-04-17 08:37 | 48.31744 | -0.13708 | 35262 ft | 418 kts | 234° |
| 2026-04-17 08:38 | 48.28189 | -0.20627 | 35260 ft | 418 kts | 234° |
| 2026-04-17 08:38 | 48.24668 | -0.27563 | 35260 ft | 418 kts | 234° |
| 2026-04-17 08:39 | 48.21139 | -0.34490 | 35239 ft | 418 kts | 234° |
| 2026-04-17 08:39 | 48.17596 | -0.41412 | 35239 ft | 419 kts | 234° |
| 2026-04-17 08:40 | 48.14051 | -0.48341 | 35238 ft | 419 kts | 234° |
| 2026-04-17 08:40 | 48.10498 | -0.55259 | 35237 ft | 419 kts | 234° |
| 2026-04-17 08:41 | 48.06932 | -0.62170 | 35239 ft | 420 kts | 234° |
| 2026-04-17 08:41 | 48.03364 | -0.69071 | 35239 ft | 419 kts | 234° |
| 2026-04-17 08:42 | 47.99797 | -0.75964 | 35226 ft | 419 kts | 234° |
| 2026-04-17 08:42 | 47.96225 | -0.82844 | 35229 ft | 419 kts | 234° |
| 2026-04-17 08:43 | 47.92652 | -0.89714 | 35245 ft | 419 kts | 233° |
| 2026-04-17 08:43 | 47.89077 | -0.96565 | 35254 ft | 418 kts | 233° |
| 2026-04-17 08:44 | 47.85510 | -1.03393 | 35253 ft | 417 kts | 233° |
| 2026-04-17 08:44 | 47.81944 | -1.10208 | 35251 ft | 417 kts | 233° |
| 2026-04-17 08:45 | 47.78371 | -1.17007 | 35233 ft | 417 kts | 233° |
| 2026-04-17 08:45 | 47.74789 | -1.23802 | 35231 ft | 418 kts | 233° |
| 2026-04-17 08:46 | 47.71201 | -1.30592 | 35242 ft | 418 kts | 233° |
| 2026-04-17 08:46 | 47.67612 | -1.37377 | 35244 ft | 418 kts | 233° |
| 2026-04-17 08:47 | 47.64043 | -1.44097 | 35244 ft | 417 kts | 233° |
| 2026-04-17 08:47 | 47.60423 | -1.50892 | 35242 ft | 417 kts | 233° |
| 2026-04-17 08:48 | 47.56680 | -1.57464 | 35226 ft | 417 kts | 230° |
| 2026-04-17 08:48 | 47.52751 | -1.63803 | 35226 ft | 418 kts | 229° |
| 2026-04-17 08:49 | 47.48835 | -1.70085 | 35243 ft | 418 kts | 229° |
| 2026-04-17 08:49 | 47.44939 | -1.76452 | 35244 ft | 417 kts | 230° |
| 2026-04-17 08:50 | 47.41063 | -1.82827 | 35246 ft | 417 kts | 229° |
| 2026-04-17 08:50 | 47.37174 | -1.89170 | 35242 ft | 417 kts | 229° |
| 2026-04-17 08:51 | 47.32805 | -1.94780 | 35228 ft | 420 kts | 213° |
| 2026-04-17 08:51 | 47.27804 | -1.99242 | 35227 ft | 420 kts | 213° |
| 2026-04-17 08:52 | 47.22805 | -2.03711 | 35224 ft | 420 kts | 213° |
| 2026-04-17 08:52 | 47.17803 | -2.08174 | 35243 ft | 420 kts | 213° |
| 2026-04-17 08:53 | 47.12811 | -2.12618 | 35238 ft | 419 kts | 213° |
| 2026-04-17 08:53 | 47.07831 | -2.17034 | 35237 ft | 418 kts | 213° |
| 2026-04-17 08:54 | 47.02845 | -2.21443 | 35237 ft | 418 kts | 213° |
| 2026-04-17 08:54 | 46.97866 | -2.25848 | 35238 ft | 418 kts | 213° |
| 2026-04-17 08:55 | 46.92884 | -2.30243 | 35233 ft | 418 kts | 213° |
| 2026-04-17 08:55 | 46.87903 | -2.34624 | 35239 ft | 418 kts | 213° |
| 2026-04-17 08:56 | 46.82924 | -2.39001 | 35243 ft | 417 kts | 213° |
| 2026-04-17 08:56 | 46.77951 | -2.43377 | 35241 ft | 417 kts | 213° |
| 2026-04-17 08:57 | 46.72982 | -2.47731 | 35257 ft | 416 kts | 213° |
| 2026-04-17 08:57 | 46.68019 | -2.52060 | 35256 ft | 415 kts | 213° |
| 2026-04-17 08:58 | 46.63064 | -2.56371 | 35254 ft | 415 kts | 213° |
| 2026-04-17 08:58 | 46.58118 | -2.60677 | 35254 ft | 414 kts | 213° |
| 2026-04-17 08:59 | 46.53207 | -2.64939 | 35237 ft | 414 kts | 213° |
| 2026-04-17 08:59 | 46.48265 | -2.69227 | 35246 ft | 414 kts | 213° |
| 2026-04-17 09:00 | 46.43324 | -2.73503 | 35250 ft | 413 kts | 213° |
| 2026-04-17 09:00 | 46.38386 | -2.77763 | 35253 ft | 413 kts | 213° |
| 2026-04-17 09:01 | 46.33453 | -2.82009 | 35261 ft | 412 kts | 213° |
| 2026-04-17 09:01 | 46.28525 | -2.86234 | 35254 ft | 411 kts | 213° |
| 2026-04-17 09:02 | 46.23966 | -2.91106 | 35256 ft | 407 kts | 223° |
| 2026-04-17 09:02 | 46.19650 | -2.96391 | 35252 ft | 407 kts | 223° |
| 2026-04-17 09:03 | 46.15335 | -3.01663 | 35251 ft | 406 kts | 222° |
| 2026-04-17 09:03 | 46.11014 | -3.06912 | 35233 ft | 406 kts | 223° |
| 2026-04-17 09:04 | 46.06701 | -3.12152 | 35243 ft | 405 kts | 223° |
| 2026-04-17 09:04 | 46.02392 | -3.17386 | 35256 ft | 405 kts | 223° |
| 2026-04-17 09:05 | 45.98082 | -3.22593 | 35257 ft | 404 kts | 222° |
| 2026-04-17 09:05 | 45.93779 | -3.27777 | 35255 ft | 403 kts | 222° |
| 2026-04-17 09:06 | 45.89482 | -3.32954 | 35246 ft | 403 kts | 223° |
| 2026-04-17 09:06 | 45.85190 | -3.38120 | 35248 ft | 403 kts | 223° |
| 2026-04-17 09:07 | 45.80899 | -3.43277 | 35248 ft | 402 kts | 223° |
| 2026-04-17 09:07 | 45.76603 | -3.48415 | 35249 ft | 402 kts | 222° |
| 2026-04-17 09:08 | 45.72304 | -3.53545 | 35258 ft | 402 kts | 222° |
| 2026-04-17 09:08 | 45.68011 | -3.58663 | 35246 ft | 402 kts | 222° |
| 2026-04-17 09:09 | 45.63741 | -3.63731 | 35248 ft | 401 kts | 222° |
| 2026-04-17 09:09 | 45.59449 | -3.68831 | 35248 ft | 401 kts | 222° |
| 2026-04-17 09:10 | 45.53014 | -3.76471 | 35248 ft | 401 kts | 222° |
| 2026-04-17 09:10 | 45.48716 | -3.81534 | 35242 ft | 401 kts | 221° |
| 2026-04-17 09:11 | 45.44410 | -3.86593 | 35250 ft | 401 kts | 222° |
| 2026-04-17 09:11 | 45.40115 | -3.91654 | 35259 ft | 401 kts | 221° |
| 2026-04-17 09:12 | 45.35826 | -3.96699 | 35251 ft | 400 kts | 221° |
| 2026-04-17 09:12 | 45.31531 | -4.01722 | 35250 ft | 400 kts | 221° |
| 2026-04-17 09:13 | 45.27241 | -4.06736 | 35242 ft | 399 kts | 221° |
| 2026-04-17 09:13 | 45.22949 | -4.11739 | 35245 ft | 399 kts | 221° |
| 2026-04-17 09:14 | 45.18659 | -4.16731 | 35242 ft | 399 kts | 221° |
| 2026-04-17 09:14 | 45.15094 | -4.20878 | 35243 ft | 399 kts | 221° |
| 2026-04-17 09:15 | 45.10807 | -4.25865 | 35230 ft | 399 kts | 221° |
| 2026-04-17 09:15 | 45.06517 | -4.30838 | 35235 ft | 399 kts | 221° |
| 2026-04-17 09:16 | 45.02216 | -4.35801 | 35241 ft | 399 kts | 221° |
| 2026-04-17 09:16 | 44.97914 | -4.40751 | 35240 ft | 399 kts | 221° |
| 2026-04-17 09:17 | 44.93617 | -4.45685 | 34989 ft | 395 kts | 221° |
| 2026-04-17 09:17 | 44.91499 | -4.48121 | 34746 ft | 392 kts | 221° |
| 2026-04-17 09:17 | 44.89392 | -4.50542 | 34498 ft | 390 kts | 221° |
| 2026-04-17 09:18 | 44.87294 | -4.52952 | 34263 ft | 388 kts | 221° |
| 2026-04-17 09:18 | 44.85199 | -4.55351 | 33983 ft | 387 kts | 221° |
| 2026-04-17 09:18 | 44.83116 | -4.57737 | 33721 ft | 385 kts | 221° |
| 2026-04-17 09:18 | 44.81043 | -4.60110 | 33459 ft | 382 kts | 221° |
| 2026-04-17 09:19 | 44.78982 | -4.62463 | 33190 ft | 381 kts | 221° |
| 2026-04-17 09:19 | 44.76929 | -4.64803 | 32920 ft | 379 kts | 221° |
| 2026-04-17 09:19 | 44.74885 | -4.67138 | 32657 ft | 378 kts | 221° |
| 2026-04-17 09:19 | 44.72861 | -4.69447 | 32366 ft | 371 kts | 221° |
| 2026-04-17 09:20 | 44.70868 | -4.71717 | 31961 ft | 366 kts | 221° |
| 2026-04-17 09:20 | 44.68901 | -4.73952 | 31559 ft | 361 kts | 221° |
| 2026-04-17 09:20 | 44.66957 | -4.76155 | 31163 ft | 357 kts | 221° |
| 2026-04-17 09:20 | 44.65034 | -4.78325 | 30771 ft | 352 kts | 221° |
| 2026-04-17 09:21 | 44.63135 | -4.80470 | 30392 ft | 348 kts | 221° |
| 2026-04-17 09:21 | 44.61264 | -4.82592 | 29977 ft | 344 kts | 221° |
| 2026-04-17 09:21 | 44.59419 | -4.84686 | 29603 ft | 338 kts | 221° |
| 2026-04-17 09:21 | 44.57632 | -4.86718 | 29261 ft | 332 kts | 221° |
| 2026-04-17 09:22 | 44.55848 | -4.88739 | 28904 ft | 328 kts | 221° |
| 2026-04-17 09:22 | 44.54071 | -4.90745 | 28552 ft | 327 kts | 221° |
| 2026-04-17 09:22 | 44.52304 | -4.92739 | 28230 ft | 325 kts | 221° |
| 2026-04-17 09:22 | 44.50544 | -4.94722 | 27879 ft | 324 kts | 221° |
| 2026-04-17 09:23 | 44.48793 | -4.96696 | 27523 ft | 322 kts | 222° |
| 2026-04-17 09:23 | 44.47058 | -4.98654 | 27158 ft | 319 kts | 222° |
| 2026-04-17 09:23 | 44.45333 | -5.00595 | 26797 ft | 317 kts | 222° |
| 2026-04-17 09:23 | 44.43617 | -5.02522 | 26435 ft | 315 kts | 222° |
| 2026-04-17 09:24 | 44.41911 | -5.04438 | 26074 ft | 314 kts | 222° |
| 2026-04-17 09:24 | 44.40215 | -5.06343 | 25710 ft | 312 kts | 222° |
| 2026-04-17 09:24 | 44.38527 | -5.08234 | 25333 ft | 310 kts | 222° |
| 2026-04-17 09:24 | 44.36849 | -5.10113 | 24973 ft | 308 kts | 223° |
| 2026-04-17 09:25 | 44.35181 | -5.11984 | 24596 ft | 306 kts | 223° |
| 2026-04-17 09:25 | 44.33526 | -5.13842 | 24220 ft | 305 kts | 223° |
| 2026-04-17 09:25 | 44.31880 | -5.15690 | 23845 ft | 303 kts | 223° |
| 2026-04-17 09:25 | 44.30239 | -5.17527 | 23397 ft | 301 kts | 223° |
| 2026-04-17 09:26 | 44.28607 | -5.19351 | 23023 ft | 300 kts | 223° |
| 2026-04-17 09:26 | 44.26978 | -5.21170 | 22643 ft | 299 kts | 222° |
| 2026-04-17 09:26 | 44.25357 | -5.22976 | 22257 ft | 298 kts | 222° |
| 2026-04-17 09:26 | 44.23741 | -5.24772 | 21875 ft | 296 kts | 222° |
| 2026-04-17 09:27 | 44.22135 | -5.26555 | 21492 ft | 295 kts | 222° |
| 2026-04-17 09:27 | 44.20535 | -5.28332 | 21104 ft | 293 kts | 222° |
| 2026-04-17 09:27 | 44.18944 | -5.30103 | 20730 ft | 292 kts | 222° |
| 2026-04-17 09:27 | 44.17359 | -5.31865 | 20352 ft | 291 kts | 221° |
| 2026-04-17 09:28 | 44.15782 | -5.33617 | 19987 ft | 289 kts | 222° |
| 2026-04-17 09:28 | 44.14214 | -5.35358 | 19609 ft | 288 kts | 222° |
| 2026-04-17 09:28 | 44.12653 | -5.37087 | 19230 ft | 286 kts | 221° |
| 2026-04-17 09:28 | 44.11098 | -5.38808 | 18863 ft | 285 kts | 221° |
| 2026-04-17 09:29 | 44.09549 | -5.40520 | 18473 ft | 284 kts | 221° |
| 2026-04-17 09:29 | 44.08006 | -5.42226 | 18074 ft | 283 kts | 221° |
| 2026-04-17 09:29 | 44.06467 | -5.43928 | 17702 ft | 282 kts | 221° |
| 2026-04-17 09:29 | 44.04936 | -5.45621 | 17336 ft | 281 kts | 221° |
| 2026-04-17 09:30 | 44.03433 | -5.47282 | 16972 ft | 279 kts | 221° |
| 2026-04-17 09:30 | 44.01917 | -5.48956 | 16612 ft | 278 kts | 221° |
| 2026-04-17 09:30 | 44.00408 | -5.50619 | 16248 ft | 276 kts | 220° |
| 2026-04-17 09:30 | 43.98906 | -5.52273 | 15888 ft | 275 kts | 220° |
| 2026-04-17 09:31 | 43.97412 | -5.53921 | 15529 ft | 274 kts | 220° |
| 2026-04-17 09:31 | 43.95909 | -5.55534 | 15174 ft | 273 kts | 215° |
| 2026-04-17 09:31 | 43.94219 | -5.56737 | 14822 ft | 274 kts | 202° |
| 2026-04-17 09:31 | 43.92361 | -5.57352 | 14466 ft | 276 kts | 189° |
| 2026-04-17 09:32 | 43.90441 | -5.57531 | 14108 ft | 276 kts | 187° |
| 2026-04-17 09:32 | 43.88527 | -5.57700 | 13716 ft | 275 kts | 187° |
| 2026-04-17 09:32 | 43.86618 | -5.57873 | 13359 ft | 275 kts | 187° |
| 2026-04-17 09:32 | 43.84715 | -5.58047 | 12999 ft | 273 kts | 187° |
| 2026-04-17 09:33 | 43.82824 | -5.58217 | 12649 ft | 272 kts | 186° |
| 2026-04-17 09:33 | 43.80940 | -5.58387 | 12302 ft | 270 kts | 186° |
| 2026-04-17 09:33 | 43.79069 | -5.58554 | 11953 ft | 269 kts | 186° |
| 2026-04-17 09:33 | 43.77206 | -5.58721 | 11604 ft | 267 kts | 186° |
| 2026-04-17 09:34 | 43.75357 | -5.58889 | 11264 ft | 265 kts | 186° |
| 2026-04-17 09:34 | 43.73520 | -5.59056 | 10923 ft | 264 kts | 186° |
| 2026-04-17 09:34 | 43.71695 | -5.59224 | 10582 ft | 262 kts | 186° |
| 2026-04-17 09:34 | 43.69882 | -5.59392 | 10246 ft | 261 kts | 185° |
| 2026-04-17 09:35 | 43.68075 | -5.59557 | 9884 ft | 259 kts | 185° |
| 2026-04-17 09:35 | 43.66284 | -5.59718 | 9552 ft | 257 kts | 185° |
| 2026-04-17 09:35 | 43.64509 | -5.59881 | 9217 ft | 255 kts | 185° |
| 2026-04-17 09:35 | 43.62747 | -5.60042 | 8885 ft | 253 kts | 185° |
| 2026-04-17 09:36 | 43.60995 | -5.60201 | 8557 ft | 251 kts | 185° |
| 2026-04-17 09:36 | 43.59278 | -5.60528 | 8238 ft | 249 kts | 196° |
| 2026-04-17 09:36 | 43.57661 | -5.61252 | 7910 ft | 247 kts | 199° |
| 2026-04-17 09:36 | 43.56065 | -5.61983 | 7575 ft | 236 kts | 199° |
| 2026-04-17 09:37 | 43.54511 | -5.62688 | 7266 ft | 236 kts | 199° |
| 2026-04-17 09:37 | 43.52965 | -5.63385 | 6955 ft | 232 kts | 199° |
| 2026-04-17 09:37 | 43.51434 | -5.64077 | 6635 ft | 231 kts | 199° |
| 2026-04-17 09:37 | 43.49916 | -5.64777 | 6156 ft | 228 kts | 202° |
| 2026-04-17 09:38 | 43.48649 | -5.66045 | 5802 ft | 229 kts | 234° |
| 2026-04-17 09:38 | 43.48111 | -5.68081 | 5475 ft | 230 kts | 267° |
| 2026-04-17 09:38 | 43.48406 | -5.70242 | 5168 ft | 234 kts | 287° |
| 2026-04-17 09:38 | 43.48928 | -5.72370 | 4874 ft | 235 kts | 288° |
| 2026-04-17 09:39 | 43.49448 | -5.74495 | 4547 ft | 234 kts | 288° |
| 2026-04-17 09:39 | 43.49958 | -5.76618 | 4241 ft | 233 kts | 288° |
| 2026-04-17 09:39 | 43.50459 | -5.78706 | 3924 ft | 224 kts | 288° |
| 2026-04-17 09:39 | 43.50934 | -5.80693 | 3648 ft | 212 kts | 288° |
| 2026-04-17 09:40 | 43.51378 | -5.82546 | 3380 ft | 196 kts | 288° |
| 2026-04-17 09:40 | 43.51795 | -5.84293 | 3141 ft | 188 kts | 288° |
| 2026-04-17 09:40 | 43.52192 | -5.85956 | 2885 ft | 179 kts | 288° |
| 2026-04-17 09:40 | 43.52568 | -5.87530 | 2642 ft | 166 kts | 288° |
| 2026-04-17 09:41 | 43.52917 | -5.88992 | 2430 ft | 157 kts | 288° |
| 2026-04-17 09:41 | 43.53252 | -5.90398 | 2217 ft | 153 kts | 289° |
| 2026-04-17 09:41 | 43.53580 | -5.91775 | 2022 ft | 150 kts | 289° |
| 2026-04-17 09:41 | 43.53904 | -5.93132 | 1820 ft | 148 kts | 289° |
| 2026-04-17 09:42 | 43.54225 | -5.94482 | 1615 ft | 148 kts | 289° |
| 2026-04-17 09:42 | 43.54540 | -5.95808 | 1411 ft | 148 kts | 289° |
| 2026-04-17 09:42 | 43.54858 | -5.97146 | 1212 ft | 146 kts | 289° |
| 2026-04-17 09:42 | 43.55175 | -5.98480 | 1009 ft | 143 kts | 289° |
| 2026-04-17 09:43 | 43.55478 | -5.99755 | 817 ft | 141 kts | 288° |
| 2026-04-17 09:43 | 43.55784 | -6.01035 | 640 ft | 140 kts | 288° |
| 2026-04-17 09:43 | 43.56084 | -6.02302 | 425 ft | 138 kts | 287° |
| 2026-04-17 09:43 | 43.56329 | -6.03345 | 424 ft | 78 kts | 288° |
| 2026-04-17 09:44 | 43.56470 | -6.03940 | 414 ft | 45 kts | 288° |
| 2026-04-17 09:44 | 43.56490 | -6.04200 | 423 ft | 22 kts | 265° |
| 2026-04-17 09:44 | 43.56471 | -6.04338 | 420 ft | 10 kts | 244° |
| 2026-04-17 09:44 | 43.56412 | -6.04360 | 417 ft | 11 kts | 148° |
| 2026-04-17 09:45 | 43.56378 | -6.04255 | 415 ft | 13 kts | 109° |
| 2026-04-17 09:45 | 43.56346 | -6.04125 | 417 ft | 15 kts | 108° |
| 2026-04-17 09:45 | 43.56310 | -6.03974 | 410 ft | 17 kts | 108° |
| 2026-04-17 09:45 | 43.56274 | -6.03816 | 423 ft | 17 kts | 107° |
| 2026-04-17 09:46 | 43.56236 | -6.03651 | 415 ft | 19 kts | 107° |
| 2026-04-17 09:46 | 43.56196 | -6.03477 | 426 ft | 19 kts | 108° |
| 2026-04-17 09:46 | 43.56156 | -6.03309 | 423 ft | 14 kts | 108° |
| 2026-04-17 09:46 | 43.56110 | -6.03226 | 420 ft | 11 kts | 173° |
| 2026-04-17 09:47 | 43.56092 | -6.03230 | 421 ft | 2 kts | 190° |
| 2026-04-17 09:47 | 43.56070 | -6.03233 | 426 ft | 4 kts | 182° |
| 2026-04-17 09:47 | 43.56035 | -6.03242 | 417 ft | 5 kts | 197° |
| 2026-04-17 09:47 | 43.56017 | -6.03263 | 423 ft | 2 kts | 232° |
| 2026-04-17 09:48 | 43.56015 | -6.03270 | 424 ft | 0 kts | 241° |